Aeroporto :
LOGIN :

Iscrizione | Disclaimer

   EN    FR    IT 

 










Sommario :    VFR   VFR Marginale   IFR   IFR Intensivo   IFR Molto Intensivo
Visibilità : 
Base nubi : 
>= 8 km
>= 3000ft
5 / 8 km
1000 / 3000 ft
1500m / 5 km
500 / 1000 ft
800 / 1500m
200 / 500 ft
< 800m
< 200 ft
Simboli :   Temporali  Nebbia  Neve Forte  Precipitazioni Forti  Vento > 20 kt
SIGMETs :   Varie  Temporali  Ghiacco  Turbolenza  Onda orograficha  Ceneri Vulcaniche







- Altitudine del aeroporto : 65 ft
- Codice IATA : PIK
- Carte del aeroporto


EGPK - Glasgow Prestwick

ULTIMO METAR :
  • 240850Z 14009KT 9999 SCT025 19/16 Q1009

METARs OBSOLETI :
  • 240820Z 16011KT 9999 SCT020 BKN030 19/16 Q1009
  • 240750Z 14010KT 100V170 9999 SCT020 BKN030 19/16 Q1008
  • 240720Z 18013KT 9999 SCT020 BKN030 19/16 Q1008
  • 240650Z 18013KT 9999 SCT020 BKN030 19/16 Q1008
  • 240620Z 17011KT 9999 FEW025CB BKN030 19/16 Q1008

TAF TAF EGPK
Valido dal 24 a 06 ore il 25 a 06 ore UTC


240456Z 2406/2506 18012KT 9999 FEW030
BECMG 2500/2503 12005KT
Nessun NOTAM noto per questo aeroporto.
1 SIGMET conosciuto per la FIR Scottish (EGPX) :
 
Temporali affogati con grandine
EGPX SIGMET 03 VALID 240610/241000 EGRR
EGPX SCOTTISH FIR EMBD TSGR FCST WI N5952 W00345 - N5745 E00019 - N5621 W00247 - N5837 W00636 - N5952 W00345 TOP FL380 MOV N 40KT NC=



MetMap, La meteo Aeronautica in un colpo d'occhio ! - Copyright ORBIFLY Dicembre 2007 - Disclaimer

ORBIFLY MET'MAP TEAM :

Programmazione e sviluppo : Alexandra Zaïnal
Concezione e sviluppo : Baudouin d'Aumeries
Co-Programmazione e sviluppo : Marc-Olivier Méhu
Supporto tecnico e logistico : Manuel Goepfert
Aiuto per la traduzione : Arnaldo La Scala

Contatto : metmap@orbifly.com




FONTI E CREDITI :

   NOAA